Terminal Aerodrome Forecast
Issued by NWS

Home | Current Version | Previous Version | Text Only | Print | Product List | Glossary On
Versions: 1 2 3 4 5 6 7 8 9 10 11 12 13
000
FTUS42 KMLB 031735
TAFFPR
TAF
KFPR 031735Z 0318/0418 08011KT P6SM FEW050
     FM040200 08008KT P6SM VCSH SCT040
     FM041400 09011G17KT P6SM VCSH SCT040 SCT060=

USA.gov is the U.S. government's official web portal to all federal, state and local government web resources and services.